sensor_id;sensor_type;location;lat;lon;timestamp;P1;durP1;ratioP1;P2;durP2;ratioP2
7017;SDS011;3549;42.162;24.726;2023-12-07T00:01:33;71.53;;;28.93;;
7017;SDS011;3549;42.162;24.726;2023-12-07T00:03:59;71.57;;;29.13;;
7017;SDS011;3549;42.162;24.726;2023-12-07T00:06:26;80.43;;;31.70;;
7017;SDS011;3549;42.162;24.726;2023-12-07T00:08:51;70.27;;;29.80;;
7017;SDS011;3549;42.162;24.726;2023-12-07T00:11:17;66.27;;;26.60;;
7017;SDS011;3549;42.162;24.726;2023-12-07T00:13:42;62.57;;;26.83;;
7017;SDS011;3549;42.162;24.726;2023-12-07T00:16:08;68.83;;;27.50;;
7017;SDS011;3549;42.162;24.726;2023-12-07T00:18:33;58.77;;;25.83;;
7017;SDS011;3549;42.162;24.726;2023-12-07T00:20:59;62.17;;;26.10;;
7017;SDS011;3549;42.162;24.726;2023-12-07T00:23:24;63.37;;;24.73;;
7017;SDS011;3549;42.162;24.726;2023-12-07T00:25:49;57.70;;;24.33;;
7017;SDS011;3549;42.162;24.726;2023-12-07T00:28:15;60.33;;;24.43;;
7017;SDS011;3549;42.162;24.726;2023-12-07T00:30:41;57.03;;;24.30;;
7017;SDS011;3549;42.162;24.726;2023-12-07T00:33:07;55.63;;;23.87;;
7017;SDS011;3549;42.162;24.726;2023-12-07T00:35:34;57.33;;;24.53;;
7017;SDS011;3549;42.162;24.726;2023-12-07T00:37:59;58.20;;;23.97;;
7017;SDS011;3549;42.162;24.726;2023-12-07T00:40:25;57.93;;;24.53;;
7017;SDS011;3549;42.162;24.726;2023-12-07T00:42:50;52.97;;;23.57;;
7017;SDS011;3549;42.162;24.726;2023-12-07T00:45:16;55.30;;;23.60;;
7017;SDS011;3549;42.162;24.726;2023-12-07T00:47:41;55.97;;;24.03;;
7017;SDS011;3549;42.162;24.726;2023-12-07T00:50:07;81.10;;;33.27;;
7017;SDS011;3549;42.162;24.726;2023-12-07T00:52:33;78.70;;;32.43;;
7017;SDS011;3549;42.162;24.726;2023-12-07T00:54:58;80.43;;;33.63;;
7017;SDS011;3549;42.162;24.726;2023-12-07T00:57:24;72.40;;;31.10;;
7017;SDS011;3549;42.162;24.726;2023-12-07T00:59:49;63.07;;;27.43;;
7017;SDS011;3549;42.162;24.726;2023-12-07T01:02:15;62.10;;;27.77;;
7017;SDS011;3549;42.162;24.726;2023-12-07T01:04:40;74.30;;;32.07;;
7017;SDS011;3549;42.162;24.726;2023-12-07T01:07:06;82.00;;;36.20;;
7017;SDS011;3549;42.162;24.726;2023-12-07T01:09:31;102.77;;;46.10;;
7017;SDS011;3549;42.162;24.726;2023-12-07T01:15:15;90.13;;;40.17;;
7017;SDS011;3549;42.162;24.726;2023-12-07T01:17:46;79.83;;;36.13;;
7017;SDS011;3549;42.162;24.726;2023-12-07T01:20:30;95.93;;;46.73;;
7017;SDS011;3549;42.162;24.726;2023-12-07T01:23:21;89.10;;;40.70;;
7017;SDS011;3549;42.162;24.726;2023-12-07T01:28:40;61.33;;;30.97;;
7017;SDS011;3549;42.162;24.726;2023-12-07T01:31:06;67.00;;;31.17;;
7017;SDS011;3549;42.162;24.726;2023-12-07T01:33:33;76.30;;;33.83;;
7017;SDS011;3549;42.162;24.726;2023-12-07T01:35:59;73.70;;;32.43;;
7017;SDS011;3549;42.162;24.726;2023-12-07T01:38:24;72.40;;;33.13;;
7017;SDS011;3549;42.162;24.726;2023-12-07T01:40:50;70.23;;;31.23;;
7017;SDS011;3549;42.162;24.726;2023-12-07T01:43:15;68.60;;;31.97;;
7017;SDS011;3549;42.162;24.726;2023-12-07T01:45:40;66.03;;;30.13;;
7017;SDS011;3549;42.162;24.726;2023-12-07T01:48:06;70.73;;;32.03;;
7017;SDS011;3549;42.162;24.726;2023-12-07T01:50:31;64.17;;;28.93;;
7017;SDS011;3549;42.162;24.726;2023-12-07T01:53:01;62.40;;;28.90;;
7017;SDS011;3549;42.162;24.726;2023-12-07T01:55:28;68.07;;;30.70;;
7017;SDS011;3549;42.162;24.726;2023-12-07T01:57:56;59.57;;;27.20;;
7017;SDS011;3549;42.162;24.726;2023-12-07T02:00:22;62.80;;;28.43;;
7017;SDS011;3549;42.162;24.726;2023-12-07T02:02:47;61.63;;;27.77;;
7017;SDS011;3549;42.162;24.726;2023-12-07T02:05:13;64.73;;;28.40;;
7017;SDS011;3549;42.162;24.726;2023-12-07T02:07:42;65.90;;;28.87;;
7017;SDS011;3549;42.162;24.726;2023-12-07T02:10:08;62.57;;;28.17;;
7017;SDS011;3549;42.162;24.726;2023-12-07T02:12:35;54.00;;;25.50;;
7017;SDS011;3549;42.162;24.726;2023-12-07T02:15:01;60.17;;;26.87;;
7017;SDS011;3549;42.162;24.726;2023-12-07T02:17:46;55.40;;;25.53;;
7017;SDS011;3549;42.162;24.726;2023-12-07T02:22:54;68.40;;;30.33;;
7017;SDS011;3549;42.162;24.726;2023-12-07T02:25:26;68.73;;;31.13;;
7017;SDS011;3549;42.162;24.726;2023-12-07T02:27:56;68.87;;;30.83;;
7017;SDS011;3549;42.162;24.726;2023-12-07T02:30:21;67.70;;;31.03;;
7017;SDS011;3549;42.162;24.726;2023-12-07T02:32:46;68.60;;;29.97;;
7017;SDS011;3549;42.162;24.726;2023-12-07T02:35:12;92.87;;;43.17;;
7017;SDS011;3549;42.162;24.726;2023-12-07T02:37:42;70.87;;;33.13;;
7017;SDS011;3549;42.162;24.726;2023-12-07T02:40:10;68.13;;;30.33;;
7017;SDS011;3549;42.162;24.726;2023-12-07T02:42:37;66.63;;;30.03;;
7017;SDS011;3549;42.162;24.726;2023-12-07T02:45:06;67.47;;;30.03;;
7017;SDS011;3549;42.162;24.726;2023-12-07T02:47:32;57.37;;;27.10;;
7017;SDS011;3549;42.162;24.726;2023-12-07T02:50:06;57.50;;;26.13;;
7017;SDS011;3549;42.162;24.726;2023-12-07T02:52:33;77.73;;;30.47;;
7017;SDS011;3549;42.162;24.726;2023-12-07T02:54:59;123.43;;;50.40;;
7017;SDS011;3549;42.162;24.726;2023-12-07T02:57:24;97.63;;;42.67;;
7017;SDS011;3549;42.162;24.726;2023-12-07T02:59:50;61.27;;;27.50;;
7017;SDS011;3549;42.162;24.726;2023-12-07T03:02:15;61.00;;;27.00;;
7017;SDS011;3549;42.162;24.726;2023-12-07T03:04:41;60.93;;;28.50;;
7017;SDS011;3549;42.162;24.726;2023-12-07T03:07:06;67.77;;;31.40;;
7017;SDS011;3549;42.162;24.726;2023-12-07T03:09:32;121.67;;;47.27;;
7017;SDS011;3549;42.162;24.726;2023-12-07T03:11:57;78.73;;;33.27;;
7017;SDS011;3549;42.162;24.726;2023-12-07T03:14:23;77.87;;;33.37;;
7017;SDS011;3549;42.162;24.726;2023-12-07T03:16:48;73.60;;;32.10;;
7017;SDS011;3549;42.162;24.726;2023-12-07T03:19:14;72.37;;;30.67;;
7017;SDS011;3549;42.162;24.726;2023-12-07T03:21:40;75.87;;;32.87;;
7017;SDS011;3549;42.162;24.726;2023-12-07T03:24:06;71.13;;;31.17;;
7017;SDS011;3549;42.162;24.726;2023-12-07T03:26:33;68.10;;;30.80;;
7017;SDS011;3549;42.162;24.726;2023-12-07T03:28:59;71.83;;;32.67;;
7017;SDS011;3549;42.162;24.726;2023-12-07T03:31:24;70.80;;;32.43;;
7017;SDS011;3549;42.162;24.726;2023-12-07T03:33:50;77.80;;;34.57;;
7017;SDS011;3549;42.162;24.726;2023-12-07T03:36:15;74.47;;;32.33;;
7017;SDS011;3549;42.162;24.726;2023-12-07T03:38:42;84.63;;;36.87;;
7017;SDS011;3549;42.162;24.726;2023-12-07T03:41:07;84.83;;;35.13;;
7017;SDS011;3549;42.162;24.726;2023-12-07T03:43:33;83.03;;;34.53;;
7017;SDS011;3549;42.162;24.726;2023-12-07T03:45:58;78.80;;;34.67;;
7017;SDS011;3549;42.162;24.726;2023-12-07T03:48:24;88.60;;;35.93;;
7017;SDS011;3549;42.162;24.726;2023-12-07T03:50:49;81.40;;;34.50;;
7017;SDS011;3549;42.162;24.726;2023-12-07T03:53:15;96.47;;;40.20;;
7017;SDS011;3549;42.162;24.726;2023-12-07T03:55:41;90.17;;;39.27;;
7017;SDS011;3549;42.162;24.726;2023-12-07T03:58:06;90.67;;;39.60;;
7017;SDS011;3549;42.162;24.726;2023-12-07T04:00:32;84.10;;;34.73;;
7017;SDS011;3549;42.162;24.726;2023-12-07T04:02:58;92.93;;;37.33;;
7017;SDS011;3549;42.162;24.726;2023-12-07T04:05:23;105.90;;;40.03;;
7017;SDS011;3549;42.162;24.726;2023-12-07T04:07:49;98.10;;;38.73;;
7017;SDS011;3549;42.162;24.726;2023-12-07T04:10:15;97.67;;;40.07;;
7017;SDS011;3549;42.162;24.726;2023-12-07T04:12:40;97.57;;;39.77;;
7017;SDS011;3549;42.162;24.726;2023-12-07T04:15:06;140.20;;;60.83;;
7017;SDS011;3549;42.162;24.726;2023-12-07T04:17:32;143.63;;;54.73;;
7017;SDS011;3549;42.162;24.726;2023-12-07T04:19:57;139.23;;;55.17;;
7017;SDS011;3549;42.162;24.726;2023-12-07T04:22:24;128.97;;;51.80;;
7017;SDS011;3549;42.162;24.726;2023-12-07T04:24:50;111.50;;;44.57;;
7017;SDS011;3549;42.162;24.726;2023-12-07T04:27:15;102.10;;;39.93;;
7017;SDS011;3549;42.162;24.726;2023-12-07T04:29:41;80.20;;;33.47;;
7017;SDS011;3549;42.162;24.726;2023-12-07T04:49:43;58.33;;;25.00;;
7017;SDS011;3549;42.162;24.726;2023-12-07T04:52:22;59.20;;;26.33;;
7017;SDS011;3549;42.162;24.726;2023-12-07T04:54:47;80.27;;;32.20;;
7017;SDS011;3549;42.162;24.726;2023-12-07T04:57:13;67.33;;;28.73;;
7017;SDS011;3549;42.162;24.726;2023-12-07T04:59:39;89.33;;;34.97;;
7017;SDS011;3549;42.162;24.726;2023-12-07T05:02:04;86.53;;;33.20;;
7017;SDS011;3549;42.162;24.726;2023-12-07T05:04:30;80.70;;;33.77;;
7017;SDS011;3549;42.162;24.726;2023-12-07T05:06:55;253.50;;;94.47;;
7017;SDS011;3549;42.162;24.726;2023-12-07T05:09:20;143.87;;;58.20;;
7017;SDS011;3549;42.162;24.726;2023-12-07T05:11:46;158.67;;;63.03;;
7017;SDS011;3549;42.162;24.726;2023-12-07T05:14:12;160.67;;;61.57;;
7017;SDS011;3549;42.162;24.726;2023-12-07T05:16:37;186.80;;;65.63;;
7017;SDS011;3549;42.162;24.726;2023-12-07T05:19:03;164.20;;;58.73;;
7017;SDS011;3549;42.162;24.726;2023-12-07T05:21:28;349.47;;;138.57;;
7017;SDS011;3549;42.162;24.726;2023-12-07T05:23:53;293.53;;;114.30;;
7017;SDS011;3549;42.162;24.726;2023-12-07T05:26:19;262.33;;;103.63;;
7017;SDS011;3549;42.162;24.726;2023-12-07T05:28:46;262.93;;;93.83;;
7017;SDS011;3549;42.162;24.726;2023-12-07T05:31:17;254.63;;;94.73;;
7017;SDS011;3549;42.162;24.726;2023-12-07T05:33:43;217.70;;;87.43;;
7017;SDS011;3549;42.162;24.726;2023-12-07T05:36:09;238.20;;;81.70;;
7017;SDS011;3549;42.162;24.726;2023-12-07T05:38:34;496.40;;;189.17;;
7017;SDS011;3549;42.162;24.726;2023-12-07T05:41:00;618.10;;;272.47;;
7017;SDS011;3549;42.162;24.726;2023-12-07T05:43:25;498.60;;;195.63;;
7017;SDS011;3549;42.162;24.726;2023-12-07T05:45:51;551.53;;;236.40;;
7017;SDS011;3549;42.162;24.726;2023-12-07T05:48:16;434.33;;;153.23;;
7017;SDS011;3549;42.162;24.726;2023-12-07T05:50:42;556.77;;;205.03;;
7017;SDS011;3549;42.162;24.726;2023-12-07T05:53:07;469.37;;;172.30;;
7017;SDS011;3549;42.162;24.726;2023-12-07T05:55:34;304.03;;;107.53;;
7017;SDS011;3549;42.162;24.726;2023-12-07T05:57:59;196.97;;;73.17;;
7017;SDS011;3549;42.162;24.726;2023-12-07T06:00:25;245.43;;;85.67;;
7017;SDS011;3549;42.162;24.726;2023-12-07T06:02:51;156.60;;;58.10;;
7017;SDS011;3549;42.162;24.726;2023-12-07T06:05:17;161.40;;;53.20;;
7017;SDS011;3549;42.162;24.726;2023-12-07T06:07:42;152.00;;;61.97;;
7017;SDS011;3549;42.162;24.726;2023-12-07T06:10:08;211.67;;;61.77;;
7017;SDS011;3549;42.162;24.726;2023-12-07T06:12:34;209.53;;;68.93;;
7017;SDS011;3549;42.162;24.726;2023-12-07T06:15:00;172.30;;;62.53;;
7017;SDS011;3549;42.162;24.726;2023-12-07T06:17:31;176.83;;;65.60;;
7017;SDS011;3549;42.162;24.726;2023-12-07T06:19:58;189.90;;;69.50;;
7017;SDS011;3549;42.162;24.726;2023-12-07T06:22:24;224.13;;;87.53;;
7017;SDS011;3549;42.162;24.726;2023-12-07T06:24:50;300.43;;;118.40;;
7017;SDS011;3549;42.162;24.726;2023-12-07T06:27:18;378.57;;;150.30;;
7017;SDS011;3549;42.162;24.726;2023-12-07T06:29:49;300.77;;;110.90;;
7017;SDS011;3549;42.162;24.726;2023-12-07T06:32:15;390.47;;;150.33;;
7017;SDS011;3549;42.162;24.726;2023-12-07T06:34:41;374.97;;;153.30;;
7017;SDS011;3549;42.162;24.726;2023-12-07T06:37:07;389.17;;;148.20;;
7017;SDS011;3549;42.162;24.726;2023-12-07T06:39:35;397.37;;;149.10;;
7017;SDS011;3549;42.162;24.726;2023-12-07T06:42:01;346.57;;;132.90;;
7017;SDS011;3549;42.162;24.726;2023-12-07T06:44:27;452.07;;;169.50;;
7017;SDS011;3549;42.162;24.726;2023-12-07T06:46:52;376.13;;;143.90;;
7017;SDS011;3549;42.162;24.726;2023-12-07T06:49:18;350.93;;;142.17;;
7017;SDS011;3549;42.162;24.726;2023-12-07T06:51:47;416.33;;;160.73;;
7017;SDS011;3549;42.162;24.726;2023-12-07T06:54:18;459.73;;;201.53;;
7017;SDS011;3549;42.162;24.726;2023-12-07T06:56:51;498.47;;;246.27;;
7017;SDS011;3549;42.162;24.726;2023-12-07T06:59:20;415.33;;;152.93;;
7017;SDS011;3549;42.162;24.726;2023-12-07T07:02:08;340.13;;;133.53;;
7017;SDS011;3549;42.162;24.726;2023-12-07T07:04:53;240.27;;;102.87;;
7017;SDS011;3549;42.162;24.726;2023-12-07T07:07:44;216.57;;;93.40;;
7017;SDS011;3549;42.162;24.726;2023-12-07T07:10:25;187.37;;;68.93;;
7017;SDS011;3549;42.162;24.726;2023-12-07T07:13:02;200.40;;;68.03;;
7017;SDS011;3549;42.162;24.726;2023-12-07T07:35:03;73.50;;;33.70;;
7017;SDS011;3549;42.162;24.726;2023-12-07T07:37:29;65.60;;;30.20;;
7017;SDS011;3549;42.162;24.726;2023-12-07T07:39:54;96.63;;;40.30;;
7017;SDS011;3549;42.162;24.726;2023-12-07T07:42:20;99.60;;;43.43;;
7017;SDS011;3549;42.162;24.726;2023-12-07T07:44:45;187.23;;;67.90;;
7017;SDS011;3549;42.162;24.726;2023-12-07T07:47:11;119.07;;;42.60;;
7017;SDS011;3549;42.162;24.726;2023-12-07T07:49:36;124.50;;;48.73;;
7017;SDS011;3549;42.162;24.726;2023-12-07T07:52:02;137.93;;;52.70;;
7017;SDS011;3549;42.162;24.726;2023-12-07T07:54:28;143.53;;;53.50;;
7017;SDS011;3549;42.162;24.726;2023-12-07T07:56:53;154.47;;;58.40;;
7017;SDS011;3549;42.162;24.726;2023-12-07T07:59:18;160.60;;;58.50;;
7017;SDS011;3549;42.162;24.726;2023-12-07T08:01:45;136.07;;;57.33;;
7017;SDS011;3549;42.162;24.726;2023-12-07T08:04:12;120.40;;;51.33;;
7017;SDS011;3549;42.162;24.726;2023-12-07T08:06:37;98.13;;;44.23;;
7017;SDS011;3549;42.162;24.726;2023-12-07T08:09:03;122.20;;;51.47;;
7017;SDS011;3549;42.162;24.726;2023-12-07T08:11:28;143.30;;;57.60;;
7017;SDS011;3549;42.162;24.726;2023-12-07T08:13:54;80.17;;;35.87;;
7017;SDS011;3549;42.162;24.726;2023-12-07T08:16:19;76.47;;;37.07;;
7017;SDS011;3549;42.162;24.726;2023-12-07T08:18:44;72.13;;;36.37;;
7017;SDS011;3549;42.162;24.726;2023-12-07T08:21:18;70.60;;;35.30;;
7017;SDS011;3549;42.162;24.726;2023-12-07T08:23:47;86.57;;;41.40;;
7017;SDS011;3549;42.162;24.726;2023-12-07T08:26:12;64.00;;;30.77;;
7017;SDS011;3549;42.162;24.726;2023-12-07T08:28:39;62.93;;;30.33;;
7017;SDS011;3549;42.162;24.726;2023-12-07T08:31:07;57.50;;;28.57;;
7017;SDS011;3549;42.162;24.726;2023-12-07T08:33:33;57.43;;;28.40;;
7017;SDS011;3549;42.162;24.726;2023-12-07T08:36:04;57.57;;;29.37;;
7017;SDS011;3549;42.162;24.726;2023-12-07T08:38:30;59.53;;;30.00;;
7017;SDS011;3549;42.162;24.726;2023-12-07T08:40:56;64.87;;;32.30;;
7017;SDS011;3549;42.162;24.726;2023-12-07T08:43:23;80.30;;;38.67;;
7017;SDS011;3549;42.162;24.726;2023-12-07T08:45:52;83.97;;;39.60;;
7017;SDS011;3549;42.162;24.726;2023-12-07T08:48:21;84.33;;;41.20;;
7017;SDS011;3549;42.162;24.726;2023-12-07T08:50:46;84.73;;;39.77;;
7017;SDS011;3549;42.162;24.726;2023-12-07T08:53:12;159.73;;;79.40;;
7017;SDS011;3549;42.162;24.726;2023-12-07T08:55:37;78.73;;;38.43;;
7017;SDS011;3549;42.162;24.726;2023-12-07T08:58:03;83.10;;;39.23;;
7017;SDS011;3549;42.162;24.726;2023-12-07T09:00:31;60.97;;;31.17;;
7017;SDS011;3549;42.162;24.726;2023-12-07T09:02:57;62.33;;;29.40;;
7017;SDS011;3549;42.162;24.726;2023-12-07T09:05:23;57.13;;;28.50;;
7017;SDS011;3549;42.162;24.726;2023-12-07T09:07:48;68.93;;;33.47;;
7017;SDS011;3549;42.162;24.726;2023-12-07T09:10:14;57.30;;;29.47;;
7017;SDS011;3549;42.162;24.726;2023-12-07T09:12:39;71.73;;;35.10;;
7017;SDS011;3549;42.162;24.726;2023-12-07T09:15:05;77.07;;;38.87;;
7017;SDS011;3549;42.162;24.726;2023-12-07T09:17:35;56.70;;;28.13;;
7017;SDS011;3549;42.162;24.726;2023-12-07T09:20:00;61.20;;;34.00;;
7017;SDS011;3549;42.162;24.726;2023-12-07T09:22:26;56.43;;;32.93;;
7017;SDS011;3549;42.162;24.726;2023-12-07T09:25:10;49.27;;;26.33;;
7017;SDS011;3549;42.162;24.726;2023-12-07T09:27:47;51.20;;;29.40;;
7017;SDS011;3549;42.162;24.726;2023-12-07T09:30:19;39.43;;;19.87;;
7017;SDS011;3549;42.162;24.726;2023-12-07T09:35:48;47.63;;;24.00;;
7017;SDS011;3549;42.162;24.726;2023-12-07T09:38:17;45.13;;;23.40;;
7017;SDS011;3549;42.162;24.726;2023-12-07T09:40:43;39.57;;;21.70;;
7017;SDS011;3549;42.162;24.726;2023-12-07T09:43:15;28.73;;;16.07;;
7017;SDS011;3549;42.162;24.726;2023-12-07T09:45:48;36.23;;;19.20;;
7017;SDS011;3549;42.162;24.726;2023-12-07T09:48:21;39.07;;;21.83;;
7017;SDS011;3549;42.162;24.726;2023-12-07T09:50:55;44.13;;;23.37;;
7017;SDS011;3549;42.162;24.726;2023-12-07T09:53:21;41.17;;;21.17;;
7017;SDS011;3549;42.162;24.726;2023-12-07T09:55:47;41.07;;;22.37;;
7017;SDS011;3549;42.162;24.726;2023-12-07T09:58:13;46.93;;;25.53;;
7017;SDS011;3549;42.162;24.726;2023-12-07T10:00:39;57.50;;;29.30;;
7017;SDS011;3549;42.162;24.726;2023-12-07T10:03:05;35.23;;;20.17;;
7017;SDS011;3549;42.162;24.726;2023-12-07T10:09:13;57.67;;;33.23;;
7017;SDS011;3549;42.162;24.726;2023-12-07T10:11:47;42.40;;;21.77;;
7017;SDS011;3549;42.162;24.726;2023-12-07T10:14:13;43.27;;;23.43;;
7017;SDS011;3549;42.162;24.726;2023-12-07T10:16:54;43.13;;;23.07;;
7017;SDS011;3549;42.162;24.726;2023-12-07T10:19:43;29.50;;;15.90;;
7017;SDS011;3549;42.162;24.726;2023-12-07T10:22:14;38.17;;;21.23;;
7017;SDS011;3549;42.162;24.726;2023-12-07T10:24:41;37.53;;;19.83;;
7017;SDS011;3549;42.162;24.726;2023-12-07T10:27:20;30.93;;;16.97;;
7017;SDS011;3549;42.162;24.726;2023-12-07T10:30:09;42.43;;;20.40;;
7017;SDS011;3549;42.162;24.726;2023-12-07T10:33:06;28.70;;;15.57;;
7017;SDS011;3549;42.162;24.726;2023-12-07T10:35:53;24.83;;;14.67;;
7017;SDS011;3549;42.162;24.726;2023-12-07T10:39:19;35.50;;;20.10;;
7017;SDS011;3549;42.162;24.726;2023-12-07T10:41:45;30.07;;;16.27;;
7017;SDS011;3549;42.162;24.726;2023-12-07T10:44:24;47.03;;;22.97;;
7017;SDS011;3549;42.162;24.726;2023-12-07T10:50:59;42.20;;;21.30;;
7017;SDS011;3549;42.162;24.726;2023-12-07T10:58:14;27.23;;;13.37;;
7017;SDS011;3549;42.162;24.726;2023-12-07T11:08:40;36.37;;;18.97;;
7017;SDS011;3549;42.162;24.726;2023-12-07T12:16:23;42.57;;;20.43;;
7017;SDS011;3549;42.162;24.726;2023-12-07T12:18:51;23.70;;;11.67;;
7017;SDS011;3549;42.162;24.726;2023-12-07T12:21:17;21.80;;;10.23;;
7017;SDS011;3549;42.162;24.726;2023-12-07T12:23:43;24.20;;;14.30;;
7017;SDS011;3549;42.162;24.726;2023-12-07T12:26:09;36.53;;;18.40;;
7017;SDS011;3549;42.162;24.726;2023-12-07T12:28:38;21.43;;;11.43;;
7017;SDS011;3549;42.162;24.726;2023-12-07T12:34:16;27.53;;;14.53;;
7017;SDS011;3549;42.162;24.726;2023-12-07T12:36:44;29.47;;;15.80;;
7017;SDS011;3549;42.162;24.726;2023-12-07T12:39:19;25.47;;;14.03;;
7017;SDS011;3549;42.162;24.726;2023-12-07T12:42:14;27.87;;;13.67;;
7017;SDS011;3549;42.162;24.726;2023-12-07T12:44:44;27.17;;;15.77;;
7017;SDS011;3549;42.162;24.726;2023-12-07T12:47:10;27.03;;;16.43;;
7017;SDS011;3549;42.162;24.726;2023-12-07T12:49:41;35.60;;;19.67;;
7017;SDS011;3549;42.162;24.726;2023-12-07T12:52:26;25.90;;;13.97;;
7017;SDS011;3549;42.162;24.726;2023-12-07T12:54:55;23.07;;;13.03;;
7017;SDS011;3549;42.162;24.726;2023-12-07T12:57:21;22.07;;;12.27;;
7017;SDS011;3549;42.162;24.726;2023-12-07T12:59:47;19.43;;;9.23;;
7017;SDS011;3549;42.162;24.726;2023-12-07T13:02:16;15.40;;;8.87;;
7017;SDS011;3549;42.162;24.726;2023-12-07T13:04:53;24.60;;;13.00;;
7017;SDS011;3549;42.162;24.726;2023-12-07T13:07:21;20.67;;;10.77;;
7017;SDS011;3549;42.162;24.726;2023-12-07T13:12:53;28.13;;;17.67;;
7017;SDS011;3549;42.162;24.726;2023-12-07T13:15:29;25.40;;;12.70;;
7017;SDS011;3549;42.162;24.726;2023-12-07T13:17:54;27.07;;;12.90;;
7017;SDS011;3549;42.162;24.726;2023-12-07T13:20:22;29.30;;;15.67;;
7017;SDS011;3549;42.162;24.726;2023-12-07T13:22:48;43.90;;;21.77;;
7017;SDS011;3549;42.162;24.726;2023-12-07T13:25:16;58.93;;;29.97;;
7017;SDS011;3549;42.162;24.726;2023-12-07T13:27:45;52.30;;;26.17;;
7017;SDS011;3549;42.162;24.726;2023-12-07T13:30:10;47.73;;;26.47;;
7017;SDS011;3549;42.162;24.726;2023-12-07T13:32:37;72.07;;;35.97;;
7017;SDS011;3549;42.162;24.726;2023-12-07T13:35:03;106.93;;;45.67;;
7017;SDS011;3549;42.162;24.726;2023-12-07T13:37:29;43.53;;;22.77;;
7017;SDS011;3549;42.162;24.726;2023-12-07T13:39:55;55.57;;;30.00;;
7017;SDS011;3549;42.162;24.726;2023-12-07T13:42:23;48.87;;;24.47;;
7017;SDS011;3549;42.162;24.726;2023-12-07T13:44:52;29.53;;;18.93;;
7017;SDS011;3549;42.162;24.726;2023-12-07T13:47:25;33.77;;;18.33;;
7017;SDS011;3549;42.162;24.726;2023-12-07T13:49:56;24.27;;;13.00;;
7017;SDS011;3549;42.162;24.726;2023-12-07T13:52:26;41.77;;;21.03;;
7017;SDS011;3549;42.162;24.726;2023-12-07T13:54:53;61.77;;;29.97;;
7017;SDS011;3549;42.162;24.726;2023-12-07T13:57:22;67.97;;;32.03;;
7017;SDS011;3549;42.162;24.726;2023-12-07T13:59:54;55.33;;;27.70;;
7017;SDS011;3549;42.162;24.726;2023-12-07T14:02:20;50.70;;;26.53;;
7017;SDS011;3549;42.162;24.726;2023-12-07T14:04:46;60.23;;;32.20;;
7017;SDS011;3549;42.162;24.726;2023-12-07T14:07:16;56.10;;;30.83;;
7017;SDS011;3549;42.162;24.726;2023-12-07T14:09:43;52.30;;;28.37;;
7017;SDS011;3549;42.162;24.726;2023-12-07T14:12:11;39.77;;;22.37;;
7017;SDS011;3549;42.162;24.726;2023-12-07T14:14:41;33.60;;;20.37;;
7017;SDS011;3549;42.162;24.726;2023-12-07T14:17:12;48.03;;;29.13;;
7017;SDS011;3549;42.162;24.726;2023-12-07T14:19:38;69.23;;;39.17;;
7017;SDS011;3549;42.162;24.726;2023-12-07T14:22:04;94.70;;;50.43;;
7017;SDS011;3549;42.162;24.726;2023-12-07T14:24:38;127.93;;;65.00;;
7017;SDS011;3549;42.162;24.726;2023-12-07T14:27:05;161.27;;;84.53;;
7017;SDS011;3549;42.162;24.726;2023-12-07T14:29:31;97.67;;;45.07;;
7017;SDS011;3549;42.162;24.726;2023-12-07T14:32:00;197.83;;;97.33;;
7017;SDS011;3549;42.162;24.726;2023-12-07T14:34:28;188.17;;;87.27;;
7017;SDS011;3549;42.162;24.726;2023-12-07T14:36:56;226.23;;;93.90;;
7017;SDS011;3549;42.162;24.726;2023-12-07T14:39:41;180.13;;;81.03;;
7017;SDS011;3549;42.162;24.726;2023-12-07T14:42:09;180.73;;;94.93;;
7017;SDS011;3549;42.162;24.726;2023-12-07T14:47:36;141.87;;;68.33;;
7017;SDS011;3549;42.162;24.726;2023-12-07T14:50:02;56.43;;;29.23;;
7017;SDS011;3549;42.162;24.726;2023-12-07T14:52:31;50.97;;;27.53;;
7017;SDS011;3549;42.162;24.726;2023-12-07T14:56:00;48.30;;;24.60;;
7017;SDS011;3549;42.162;24.726;2023-12-07T14:58:12;32.00;;;17.10;;
7017;SDS011;3549;42.162;24.726;2023-12-07T18:44:54;6.87;;;4.20;;
7017;SDS011;3549;42.162;24.726;2023-12-07T18:47:20;6.20;;;4.00;;
7017;SDS011;3549;42.162;24.726;2023-12-07T18:49:45;3.83;;;2.90;;
7017;SDS011;3549;42.162;24.726;2023-12-07T18:52:11;6.00;;;4.00;;
7017;SDS011;3549;42.162;24.726;2023-12-07T18:54:38;4.23;;;3.00;;
7017;SDS011;3549;42.162;24.726;2023-12-07T18:57:04;4.97;;;3.07;;
7017;SDS011;3549;42.162;24.726;2023-12-07T18:59:30;5.10;;;3.67;;
7017;SDS011;3549;42.162;24.726;2023-12-07T19:01:56;5.00;;;2.90;;
7017;SDS011;3549;42.162;24.726;2023-12-07T19:04:21;5.53;;;3.70;;
7017;SDS011;3549;42.162;24.726;2023-12-07T19:06:47;4.37;;;2.83;;
7017;SDS011;3549;42.162;24.726;2023-12-07T19:09:12;4.17;;;2.80;;
7017;SDS011;3549;42.162;24.726;2023-12-07T19:11:42;33.83;;;14.40;;
7017;SDS011;3549;42.162;24.726;2023-12-07T19:14:11;11.37;;;5.40;;
7017;SDS011;3549;42.162;24.726;2023-12-07T19:16:37;9.30;;;4.70;;
7017;SDS011;3549;42.162;24.726;2023-12-07T19:19:02;9.90;;;4.70;;
7017;SDS011;3549;42.162;24.726;2023-12-07T19:21:28;6.13;;;3.77;;
7017;SDS011;3549;42.162;24.726;2023-12-07T19:23:53;5.33;;;3.63;;
7017;SDS011;3549;42.162;24.726;2023-12-07T19:26:19;4.53;;;2.93;;
7017;SDS011;3549;42.162;24.726;2023-12-07T19:28:51;3.77;;;2.93;;
7017;SDS011;3549;42.162;24.726;2023-12-07T19:31:16;7.60;;;3.13;;
7017;SDS011;3549;42.162;24.726;2023-12-07T19:33:43;4.93;;;3.60;;
7017;SDS011;3549;42.162;24.726;2023-12-07T19:36:08;4.43;;;2.87;;
7017;SDS011;3549;42.162;24.726;2023-12-07T19:38:34;5.13;;;3.90;;
7017;SDS011;3549;42.162;24.726;2023-12-07T19:41:01;4.23;;;3.00;;
7017;SDS011;3549;42.162;24.726;2023-12-07T19:43:28;5.27;;;3.23;;
7017;SDS011;3549;42.162;24.726;2023-12-07T19:45:57;4.67;;;2.87;;
7017;SDS011;3549;42.162;24.726;2023-12-07T19:48:25;4.90;;;2.80;;
7017;SDS011;3549;42.162;24.726;2023-12-07T19:50:51;5.47;;;2.63;;
7017;SDS011;3549;42.162;24.726;2023-12-07T19:53:16;4.93;;;2.27;;
7017;SDS011;3549;42.162;24.726;2023-12-07T19:55:42;4.57;;;2.77;;
7017;SDS011;3549;42.162;24.726;2023-12-07T19:58:28;4.30;;;2.57;;
7017;SDS011;3549;42.162;24.726;2023-12-07T20:01:15;4.53;;;3.00;;
7017;SDS011;3549;42.162;24.726;2023-12-07T20:03:40;4.33;;;2.77;;
7017;SDS011;3549;42.162;24.726;2023-12-07T20:06:06;4.00;;;2.40;;
7017;SDS011;3549;42.162;24.726;2023-12-07T20:08:34;6.30;;;4.03;;
7017;SDS011;3549;42.162;24.726;2023-12-07T20:11:00;5.17;;;3.37;;
7017;SDS011;3549;42.162;24.726;2023-12-07T20:17:49;6.40;;;3.83;;
7017;SDS011;3549;42.162;24.726;2023-12-07T20:23:35;5.83;;;3.80;;
7017;SDS011;3549;42.162;24.726;2023-12-07T20:26:10;4.30;;;3.07;;
7017;SDS011;3549;42.162;24.726;2023-12-07T20:28:48;4.67;;;2.90;;
7017;SDS011;3549;42.162;24.726;2023-12-07T20:31:17;5.40;;;3.67;;
7017;SDS011;3549;42.162;24.726;2023-12-07T20:33:46;10.03;;;5.50;;
7017;SDS011;3549;42.162;24.726;2023-12-07T20:36:12;24.13;;;8.37;;
7017;SDS011;3549;42.162;24.726;2023-12-07T20:38:40;9.00;;;4.20;;
7017;SDS011;3549;42.162;24.726;2023-12-07T21:12:53;4.90;;;2.90;;
7017;SDS011;3549;42.162;24.726;2023-12-07T21:15:23;5.37;;;3.33;;
7017;SDS011;3549;42.162;24.726;2023-12-07T21:17:49;5.90;;;3.40;;
7017;SDS011;3549;42.162;24.726;2023-12-07T21:20:15;5.33;;;2.43;;
7017;SDS011;3549;42.162;24.726;2023-12-07T21:22:40;3.77;;;2.70;;
7017;SDS011;3549;42.162;24.726;2023-12-07T21:25:06;5.10;;;2.87;;
7017;SDS011;3549;42.162;24.726;2023-12-07T21:27:32;4.23;;;2.70;;